Time;durP1;ratioP1;P1;durP2;ratioP2;P2;SDS_P1;SDS_P2;PMS_P1;PMS_P2;Temp;Humidity;BMP_temperature;BMP_pressure;BME280_temperature;BME280_humidity;BME280_pressure;Samples;Min_cycle;Max_cycle;Signal;HPM_P1;HPM_P2
2023/03/21 00:01:15;;;;;;;16.65;10.82;;;;;;;10.22;83.07;101607.03;5073683;28;20020;-88
2023/03/21 00:03:45;;;;;;;19.55;9.68;;;;;;;10.33;82.42;101615.56;5089578;28;20031;-88
2023/03/21 00:06:12;;;;;;;15.65;10.10;;;;;;;10.29;82.80;101605.97;5088964;28;20474;-88
2023/03/21 00:08:38;;;;;;;19.40;11.02;;;;;;;10.18;84.27;101602.72;5083137;28;20019;-88
2023/03/21 00:11:06;;;;;;;16.60;10.73;;;;;;;10.21;83.80;101600.88;5072930;28;20028;-87
2023/03/21 00:13:32;;;;;;;19.85;9.45;;;;;;;10.24;83.59;101610.50;5090294;28;20481;-88
2023/03/21 00:16:14;;;;;;;17.08;9.98;;;;;;;10.13;84.00;101586.97;5092805;28;20039;-88
2023/03/21 00:18:40;;;;;;;15.82;8.60;;;;;;;10.17;83.75;101593.94;5086591;28;20032;-88
2023/03/21 00:21:07;;;;;;;22.77;9.98;;;;;;;10.14;83.91;101588.72;5092094;28;20379;-88
2023/03/21 00:23:33;;;;;;;18.85;9.95;;;;;;;10.20;83.73;101593.81;5088543;28;20530;-88
2023/03/21 00:25:59;;;;;;;19.23;9.95;;;;;;;10.15;83.96;101586.94;5072918;28;20115;-88
2023/03/21 00:28:25;;;;;;;18.65;10.90;;;;;;;10.13;84.03;101576.41;5071678;28;20386;-88
2023/03/21 00:30:57;;;;;;;21.63;10.60;;;;;;;10.12;83.74;101574.69;5086883;28;20081;-88
2023/03/21 00:33:22;;;;;;;14.83;9.47;;;;;;;10.29;83.06;101584.81;5108377;28;20471;-88
2023/03/21 00:35:50;;;;;;;18.35;9.95;;;;;;;10.22;82.99;101570.03;5091574;28;20293;-88
2023/03/21 00:38:17;;;;;;;13.95;8.77;;;;;;;10.29;82.95;101571.59;5090965;28;20031;-88
2023/03/21 00:40:42;;;;;;;14.45;9.10;;;;;;;10.29;82.50;101570.75;5085613;28;20051;-88
2023/03/21 00:43:07;;;;;;;16.27;8.60;;;;;;;10.34;81.94;101561.78;5074003;28;20048;-88
2023/03/21 00:45:33;;;;;;;22.15;10.95;;;;;;;10.28;82.19;101556.66;5086680;28;20024;-88
2023/03/21 00:47:58;;;;;;;12.15;8.75;;;;;;;10.29;82.08;101554.88;5088486;28;20031;-88
2023/03/21 00:50:24;;;;;;;14.90;8.88;;;;;;;10.39;81.81;101569.56;5073905;28;20472;-88
2023/03/21 00:52:50;;;;;;;14.27;8.48;;;;;;;10.36;81.82;101551.19;5085822;28;20107;-88
2023/03/21 00:55:17;;;;;;;16.10;9.02;;;;;;;10.38;81.88;101552.00;5090773;28;20135;-88
2023/03/21 00:57:44;;;;;;;16.75;8.77;;;;;;;10.46;81.24;101548.22;5089828;28;20115;-88
2023/03/21 01:00:11;;;;;;;18.35;8.77;;;;;;;10.61;80.36;101541.63;5079132;28;20032;-88
2023/03/21 01:02:41;;;;;;;16.77;8.60;;;;;;;10.45;80.42;101535.91;5082367;28;20098;-88
2023/03/21 01:05:08;;;;;;;16.65;8.85;;;;;;;10.50;80.65;101542.88;5088837;28;20103;-88
2023/03/21 01:07:34;;;;;;;19.30;9.68;;;;;;;10.50;80.48;101537.56;5090113;28;20085;-88
2023/03/21 01:09:59;;;;;;;16.10;7.90;;;;;;;10.45;80.26;101527.13;5091004;28;20028;-88
2023/03/21 01:12:24;;;;;;;16.15;7.78;;;;;;;10.55;80.02;101530.38;5070894;28;20043;-88
2023/03/21 01:14:50;;;;;;;17.25;8.70;;;;;;;10.54;79.87;101534.78;5089417;28;20028;-88
2023/03/21 01:17:15;;;;;;;12.52;8.00;;;;;;;10.56;79.99;101526.81;5090389;28;20035;-88
2023/03/21 01:19:40;;;;;;;17.70;8.75;;;;;;;10.55;79.93;101518.03;5090764;28;20032;-88
2023/03/21 01:22:06;;;;;;;16.30;8.48;;;;;;;10.56;79.79;101517.09;5074182;28;20058;-88
2023/03/21 01:24:31;;;;;;;11.82;7.72;;;;;;;10.54;79.92;101512.75;5091907;28;20088;-87
2023/03/21 01:26:56;;;;;;;12.68;8.05;;;;;;;10.57;79.55;101505.59;5069937;28;20028;-88
2023/03/21 01:29:22;;;;;;;14.02;7.82;;;;;;;10.60;79.70;101515.25;5087078;28;20024;-88
2023/03/21 01:31:47;;;;;;;19.83;8.90;;;;;;;10.54;79.57;101491.59;5062967;28;20039;-88
2023/03/21 01:34:13;;;;;;;14.38;7.20;;;;;;;10.53;79.30;101496.03;5062186;28;20051;-87
2023/03/21 01:36:38;;;;;;;13.75;7.80;;;;;;;10.60;79.20;101508.16;5086018;28;20034;-88
2023/03/21 01:39:05;;;;;;;17.27;7.05;;;;;;;10.52;79.14;101494.31;5092568;28;20031;-87
2023/03/21 01:41:39;;;;;;;15.50;7.78;;;;;;;10.61;78.80;101501.97;5075860;28;20028;-88
2023/03/21 01:44:04;;;;;;;15.05;7.20;;;;;;;10.51;78.89;101492.56;5089707;28;20036;-88
2023/03/21 01:46:45;;;;;;;14.60;6.97;;;;;;;10.62;78.59;101505.47;5092468;28;20039;-88
2023/03/21 01:49:33;;;;;;;13.45;6.93;;;;;;;10.65;78.49;101500.09;5074981;28;20035;-88
2023/03/21 01:52:31;;;;;;;12.45;7.13;;;;;;;10.64;78.21;101498.38;5059921;28;20024;-88
2023/03/21 01:54:57;;;;;;;16.92;7.05;;;;;;;10.58;78.13;101493.25;5089943;28;20123;-88
2023/03/21 01:57:45;;;;;;;13.45;6.78;;;;;;;10.59;78.53;101493.22;5087268;28;20040;-88
2023/03/21 02:00:11;;;;;;;13.07;6.72;;;;;;;10.51;78.16;101489.94;5064842;28;20055;-88
2023/03/21 02:02:49;;;;;;;16.90;7.25;;;;;;;10.53;78.07;101482.81;5068450;28;20055;-88
2023/03/21 02:05:19;;;;;;;14.25;6.75;;;;;;;10.52;78.35;101480.22;5094315;28;20461;-88
2023/03/21 02:07:44;;;;;;;13.90;6.72;;;;;;;10.48;78.53;101476.78;5093074;28;20122;-87
2023/03/21 02:10:13;;;;;;;13.63;6.72;;;;;;;10.41;78.76;101465.53;5087496;28;20111;-88
2023/03/21 02:12:38;;;;;;;14.90;6.85;;;;;;;10.47;78.88;101472.41;5077070;28;20478;-88
2023/03/21 02:15:06;;;;;;;11.55;6.78;;;;;;;10.41;79.02;101462.03;5083537;28;20024;-88
2023/03/21 02:17:57;;;;;;;12.50;7.25;;;;;;;10.46;78.60;101474.19;5062310;28;20085;-87
2023/03/21 02:20:49;;;;;;;12.10;6.30;;;;;;;10.42;78.70;101458.47;5083444;28;20395;-88
2023/03/21 02:23:32;;;;;;;15.60;7.22;;;;;;;10.49;78.95;101467.94;5062945;28;20104;-87
2023/03/21 02:26:14;;;;;;;12.23;7.03;;;;;;;10.46;78.44;101460.13;5093114;28;20027;-88
2023/03/21 02:28:54;;;;;;;15.98;7.40;;;;;;;10.38;78.14;101433.91;5073139;28;20039;-88
2023/03/21 02:31:37;;;;;;;16.38;7.68;;;;;;;10.43;78.67;101454.91;5093016;28;20031;-88
2023/03/21 02:34:45;;;;;;;15.88;8.38;;;;;;;10.45;78.70;101447.81;5093791;28;20020;-88
2023/03/21 02:37:38;;;;;;;13.60;6.03;;;;;;;10.40;78.54;101437.38;5091287;28;20042;-88
2023/03/21 02:40:09;;;;;;;12.63;6.72;;;;;;;10.52;78.50;101446.72;5069850;28;20071;-88
2023/03/21 02:43:01;;;;;;;13.07;7.10;;;;;;;10.52;78.63;101438.78;5091350;28;20034;-88
2023/03/21 02:45:49;;;;;;;12.68;6.90;;;;;;;10.32;79.09;101443.81;5078141;28;20515;-88
2023/03/21 02:48:23;;;;;;;12.95;6.82;;;;;;;10.29;79.42;101423.59;5088339;28;20414;-88
2023/03/21 02:50:52;;;;;;;15.48;6.60;;;;;;;10.26;79.18;101436.03;5090703;28;20541;-88
2023/03/21 02:53:21;;;;;;;18.88;6.80;;;;;;;10.26;79.10;101418.44;5084137;28;20034;-88
2023/03/21 02:55:48;;;;;;;12.85;6.65;;;;;;;10.27;78.93;101433.38;5086001;28;20438;-88
2023/03/21 02:58:19;;;;;;;15.00;7.63;;;;;;;10.44;78.60;101433.75;5091850;28;20383;-88
2023/03/21 03:00:44;;;;;;;16.67;7.55;;;;;;;10.37;78.94;101428.69;5082162;28;20032;-88
2023/03/21 03:03:11;;;;;;;11.50;6.68;;;;;;;10.44;78.55;101433.75;5076117;28;20035;-88
2023/03/21 03:05:46;;;;;;;15.95;7.38;;;;;;;10.38;79.05;101428.63;5070782;28;20061;-88
2023/03/21 03:08:26;;;;;;;13.13;6.70;;;;;;;10.32;79.18;101436.75;5093272;28;20039;-88
2023/03/21 03:11:09;;;;;;;14.13;6.82;;;;;;;10.34;79.06;101426.97;5092453;28;20110;-88
2023/03/21 03:13:52;;;;;;;14.60;7.43;;;;;;;10.38;78.77;101427.75;5087991;28;20042;-88
2023/03/21 03:16:30;;;;;;;11.40;6.72;;;;;;;10.38;78.97;101425.97;5092579;28;20028;-87
2023/03/21 03:18:59;;;;;;;11.98;6.75;;;;;;;10.34;78.71;101420.81;5063671;28;20032;-88
2023/03/21 03:21:50;;;;;;;11.93;6.53;;;;;;;10.37;78.58;101416.31;5093454;28;20024;-88
2023/03/21 03:24:15;;;;;;;14.48;6.55;;;;;;;10.33;79.08;101413.81;5091850;28;20415;-88
2023/03/21 03:27:16;;;;;;;13.32;7.05;;;;;;;10.52;78.49;101419.41;5072553;28;20024;-88
2023/03/21 03:29:45;;;;;;;12.40;6.75;;;;;;;10.26;79.41;101405.22;5050499;28;20077;-88
2023/03/21 03:32:20;;;;;;;13.35;7.35;;;;;;;10.16;79.59;101407.22;5069134;28;20070;-88
2023/03/21 03:34:55;;;;;;;13.57;6.15;;;;;;;10.22;79.49;101408.81;5083198;28;20618;-88
2023/03/21 03:37:25;;;;;;;16.08;7.18;;;;;;;10.23;79.14;101402.63;5072780;28;20362;-88
2023/03/21 03:39:57;;;;;;;10.40;6.45;;;;;;;10.22;78.85;101396.47;5080068;28;20476;-87
2023/03/21 03:42:40;;;;;;;12.23;6.03;;;;;;;10.27;79.16;101403.44;5083352;28;20233;-88
2023/03/21 03:45:08;;;;;;;10.93;6.05;;;;;;;10.19;79.33;101393.06;5090768;28;20536;-88
2023/03/21 03:47:41;;;;;;;12.73;6.70;;;;;;;10.26;79.52;101401.69;5088639;28;20024;-88
2023/03/21 03:50:31;;;;;;;16.48;7.55;;;;;;;10.27;79.80;101398.16;5085518;28;20042;-88
2023/03/21 03:53:19;;;;;;;10.98;6.55;;;;;;;10.20;80.21;101400.06;5050974;28;20036;-88
2023/03/21 03:55:46;;;;;;;13.13;6.47;;;;;;;10.18;79.41;101386.03;5087937;28;20059;-88
2023/03/21 03:58:12;;;;;;;13.32;7.25;;;;;;;10.10;80.66;101385.41;5067279;28;20021;-88
2023/03/21 04:00:38;;;;;;;13.07;6.90;;;;;;;10.17;80.67;101389.59;5082125;28;20028;-88
2023/03/21 04:03:05;;;;;;;14.65;7.07;;;;;;;10.12;80.58;101386.25;5089556;28;20051;-88
2023/03/21 04:05:31;;;;;;;13.75;7.68;;;;;;;10.08;80.61;101376.66;5077585;28;20497;-88
2023/03/21 04:07:57;;;;;;;15.23;7.28;;;;;;;10.13;80.22;101383.53;5090666;28;20020;-88
2023/03/21 04:10:22;;;;;;;17.67;8.52;;;;;;;10.10;80.74;101386.25;5068431;28;20028;-88
2023/03/21 04:12:48;;;;;;;14.30;7.35;;;;;;;10.03;80.04;101362.72;5084913;28;20046;-88
2023/03/21 04:15:13;;;;;;;15.30;7.93;;;;;;;10.06;80.21;101367.91;5088985;28;20027;-88
2023/03/21 04:17:38;;;;;;;11.68;7.05;;;;;;;10.06;80.19;101381.97;5074025;28;20028;-88
2023/03/21 04:20:05;;;;;;;17.20;8.05;;;;;;;9.94;81.14;101377.06;5089341;28;20383;-88
2023/03/21 04:22:32;;;;;;;13.82;8.48;;;;;;;10.15;79.95;101386.13;5087726;28;20028;-88
2023/03/21 04:24:57;;;;;;;16.75;8.32;;;;;;;10.17;79.87;101371.09;5091005;28;20069;-88
2023/03/21 04:27:23;;;;;;;17.08;7.72;;;;;;;10.16;79.86;101372.84;5091637;28;20035;-88
2023/03/21 04:29:48;;;;;;;14.00;7.35;;;;;;;10.22;79.85;101374.47;5085843;28;20037;-88
2023/03/21 04:32:18;;;;;;;21.58;7.85;;;;;;;10.23;78.96;101370.91;5064352;28;20093;-88
2023/03/21 04:34:48;;;;;;;15.68;8.52;;;;;;;10.23;79.33;101381.47;5080852;28;20029;-88
2023/03/21 04:37:17;;;;;;;12.85;7.15;;;;;;;10.28;79.38;101378.75;5085339;28;20040;-88
2023/03/21 04:39:45;;;;;;;14.65;8.07;;;;;;;10.20;78.83;101366.56;5085553;28;20028;-88
2023/03/21 04:42:10;;;;;;;20.98;8.77;;;;;;;10.23;78.48;101360.34;5089303;28;20059;-88
2023/03/21 04:44:36;;;;;;;18.60;8.00;;;;;;;10.27;78.57;101355.88;5062355;28;20513;-88
2023/03/21 04:47:01;;;;;;;20.08;8.35;;;;;;;10.22;78.59;101353.34;5060060;28;20028;-88
2023/03/21 04:49:26;;;;;;;18.50;7.38;;;;;;;10.41;77.49;101362.47;5083117;28;20029;-88
2023/03/21 04:51:52;;;;;;;19.17;9.73;;;;;;;10.45;77.25;101356.16;5072472;28;20218;-88
2023/03/21 04:54:17;;;;;;;19.15;8.20;;;;;;;10.43;77.57;101351.81;5086406;28;20056;-88
2023/03/21 04:56:43;;;;;;;18.30;7.97;;;;;;;10.44;77.12;101354.44;5090010;28;20507;-88
2023/03/21 04:59:12;;;;;;;17.20;8.63;;;;;;;10.33;77.61;101359.19;5086428;28;20035;-88
2023/03/21 05:01:39;;;;;;;18.50;8.23;;;;;;;10.41;76.94;101361.59;5066000;28;20025;-88
2023/03/21 05:04:05;;;;;;;13.60;6.85;;;;;;;10.30;77.83;101337.25;5084943;28;20024;-88
2023/03/21 05:06:31;;;;;;;15.70;7.43;;;;;;;10.21;77.68;101341.91;5091737;28;20491;-88
2023/03/21 05:09:04;;;;;;;13.95;7.28;;;;;;;10.33;77.97;101351.25;5090796;28;20061;-88
2023/03/21 05:11:32;;;;;;;16.17;7.78;;;;;;;10.35;77.98;101348.56;5092329;28;20058;-88
2023/03/21 05:13:58;;;;;;;14.77;8.05;;;;;;;10.25;77.94;101339.19;5070193;28;20020;-88
2023/03/21 05:16:25;;;;;;;17.67;8.13;;;;;;;10.33;78.11;101339.81;5073241;28;20032;-88
2023/03/21 05:18:53;;;;;;;19.48;7.50;;;;;;;10.31;78.49;101349.59;5094820;28;20051;-88
2023/03/21 05:21:20;;;;;;;16.27;8.85;;;;;;;10.40;78.23;101351.94;5078084;28;20031;-88
2023/03/21 05:23:52;;;;;;;13.98;7.35;;;;;;;10.30;78.26;101332.84;5094194;28;20035;-88
2023/03/21 05:26:18;;;;;;;13.38;6.43;;;;;;;10.30;78.28;101329.34;5067367;28;20024;-88
2023/03/21 05:28:43;;;;;;;18.13;7.25;;;;;;;10.33;78.37;101335.38;5072911;28;20077;-88
2023/03/21 05:31:09;;;;;;;12.07;7.18;;;;;;;10.33;78.09;101330.09;5092634;28;20547;-88
2023/03/21 05:33:34;;;;;;;15.20;7.10;;;;;;;10.39;78.52;101334.34;5090818;28;20028;-88
2023/03/21 05:35:59;;;;;;;16.67;6.90;;;;;;;10.40;77.72;101331.66;5070545;28;20387;-88
2023/03/21 05:38:25;;;;;;;12.32;6.75;;;;;;;10.41;77.82;101329.88;5093244;28;20073;-88
2023/03/21 05:40:52;;;;;;;14.40;6.60;;;;;;;10.39;77.77;101326.41;5094179;28;20035;-88
2023/03/21 05:43:18;;;;;;;14.77;6.95;;;;;;;10.41;77.93;101335.16;5076154;28;20028;-87
2023/03/21 05:45:43;;;;;;;10.90;6.47;;;;;;;10.41;78.20;101340.44;5091362;28;20051;-88
2023/03/21 05:48:08;;;;;;;13.02;6.82;;;;;;;10.36;77.92;101334.44;5092455;28;20077;-88
2023/03/21 05:50:34;;;;;;;13.25;6.68;;;;;;;10.32;78.55;101330.16;5084571;28;20433;-88
2023/03/21 05:52:59;;;;;;;15.20;7.43;;;;;;;10.26;78.41;101328.59;5089937;28;20025;-88
2023/03/21 05:55:24;;;;;;;21.08;6.72;;;;;;;10.27;78.22;101326.81;5083585;28;20864;-88
2023/03/21 05:57:50;;;;;;;12.90;6.93;;;;;;;10.24;79.39;101335.69;5073736;28;20555;-88
2023/03/21 06:00:15;;;;;;;15.05;6.53;;;;;;;10.25;79.12;101333.91;5090545;28;20468;-88
2023/03/21 06:02:41;;;;;;;10.68;6.63;;;;;;;10.24;79.19;101322.47;5081636;28;20036;-87
2023/03/21 06:05:07;;;;;;;13.32;6.70;;;;;;;10.34;79.02;101341.53;5087093;28;20106;-87
2023/03/21 06:07:33;;;;;;;12.52;7.30;;;;;;;10.33;79.24;101330.09;5092606;28;20074;-88
2023/03/21 06:09:58;;;;;;;15.82;6.90;;;;;;;10.26;78.86;101323.31;5082561;28;20490;-88
2023/03/21 06:12:24;;;;;;;13.63;6.75;;;;;;;10.40;78.59;101330.81;5094443;28;20043;-88
2023/03/21 06:14:49;;;;;;;13.55;7.10;;;;;;;10.46;78.67;101330.59;5089294;28;20021;-88
2023/03/21 06:17:14;;;;;;;12.18;6.50;;;;;;;10.35;78.98;101325.66;5090246;28;20034;-88
2023/03/21 06:19:40;;;;;;;14.60;6.85;;;;;;;10.40;79.35;101333.44;5092117;28;20047;-88
2023/03/21 06:22:05;;;;;;;14.23;6.85;;;;;;;10.37;79.05;101330.88;5089377;28;20380;-88
2023/03/21 06:24:31;;;;;;;12.27;5.97;;;;;;;10.47;78.46;101337.59;5089063;28;20458;-88
2023/03/21 06:26:56;;;;;;;13.60;6.97;;;;;;;10.44;78.89;101333.28;5091902;28;20039;-88
2023/03/21 06:29:21;;;;;;;13.70;6.03;;;;;;;10.46;77.97;101335.88;5091772;28;20032;-88
2023/03/21 06:31:47;;;;;;;13.98;6.07;;;;;;;10.51;78.35;101341.88;5078906;28;20038;-88
2023/03/21 06:34:12;;;;;;;11.45;4.97;;;;;;;10.57;77.31;101346.09;5075312;28;20032;-88
2023/03/21 06:36:37;;;;;;;14.18;5.57;;;;;;;10.63;77.44;101345.91;5092214;28;20066;-88
2023/03/21 06:39:03;;;;;;;13.95;5.95;;;;;;;10.64;77.33;101334.44;5092853;28;20032;-88
2023/03/21 06:41:29;;;;;;;11.85;5.00;;;;;;;10.66;77.04;101343.16;5093072;28;20046;-88
2023/03/21 06:43:54;;;;;;;11.63;5.53;;;;;;;10.75;76.32;101327.00;5092591;28;20024;-88
2023/03/21 06:46:19;;;;;;;13.50;5.57;;;;;;;10.80;75.45;101340.06;5091113;28;20047;-88
2023/03/21 06:48:45;;;;;;;12.85;5.15;;;;;;;10.99;75.75;101346.47;5094326;28;20028;-87
2023/03/21 06:51:12;;;;;;;7.68;4.35;;;;;;;11.03;75.27;101331.38;5072441;28;20172;-87
2023/03/21 06:53:37;;;;;;;7.50;4.20;;;;;;;11.05;75.82;101335.69;5071374;28;20020;-87
2023/03/21 06:56:03;;;;;;;11.95;5.70;;;;;;;11.09;75.78;101339.94;5092928;28;20040;-87
2023/03/21 06:58:28;;;;;;;10.77;5.20;;;;;;;11.02;76.22;101345.53;5073105;28;20137;-86
2023/03/21 07:00:57;;;;;;;11.32;6.45;;;;;;;11.08;76.33;101353.25;5088356;28;20060;-87
2023/03/21 07:03:23;;;;;;;12.48;4.70;;;;;;;11.03;76.87;101334.00;5089582;28;20625;-87
2023/03/21 07:05:48;;;;;;;10.32;5.15;;;;;;;11.02;77.28;101346.38;5087690;28;20114;-87
2023/03/21 07:08:14;;;;;;;9.77;4.88;;;;;;;10.95;77.65;101342.19;5088642;28;20058;-87
2023/03/21 07:10:43;;;;;;;12.80;5.72;;;;;;;10.94;78.71;101353.69;5089258;28;20035;-87
2023/03/21 07:13:09;;;;;;;15.50;5.13;;;;;;;10.95;78.25;101353.63;5089774;28;20038;-87
2023/03/21 07:15:36;;;;;;;14.52;5.32;;;;;;;10.92;79.04;101352.91;5065381;28;20024;-87
2023/03/21 07:18:03;;;;;;;15.38;5.68;;;;;;;10.95;78.77;101369.50;5080890;28;20024;-87
2023/03/21 07:20:29;;;;;;;12.60;5.43;;;;;;;10.86;79.11;101346.00;5074045;28;20020;-87
2023/03/21 07:22:55;;;;;;;12.32;5.68;;;;;;;10.93;78.41;101357.28;5070524;28;20036;-86
2023/03/21 07:25:20;;;;;;;17.05;5.90;;;;;;;10.92;79.21;101358.19;5091134;28;20027;-87
2023/03/21 07:27:45;;;;;;;10.40;6.22;;;;;;;10.92;79.64;101368.78;5091743;28;20437;-86
2023/03/21 07:30:11;;;;;;;15.13;6.07;;;;;;;10.96;79.12;101362.47;5090957;28;20099;-87
2023/03/21 07:32:38;;;;;;;11.52;5.35;;;;;;;11.03;79.62;101368.41;5087723;28;20107;-87
2023/03/21 07:35:04;;;;;;;15.85;6.03;;;;;;;10.88;79.31;101367.13;5087750;28;20027;-87
2023/03/21 07:37:30;;;;;;;11.90;5.80;;;;;;;10.93;79.49;101367.84;5087713;28;20479;-87
2023/03/21 07:39:55;;;;;;;11.10;6.05;;;;;;;10.96;79.17;101367.75;5091215;28;20035;-87
2023/03/21 07:42:20;;;;;;;11.25;5.72;;;;;;;10.97;80.31;101366.84;5089572;28;20019;-87
2023/03/21 07:44:46;;;;;;;15.50;7.15;;;;;;;10.98;80.50;101371.22;5089746;28;20048;-86
2023/03/21 07:47:11;;;;;;;13.38;5.53;;;;;;;11.07;79.77;101355.03;5068936;28;20017;-87
2023/03/21 07:49:36;;;;;;;13.32;7.32;;;;;;;11.01;80.71;101362.31;5072946;28;20057;-87
2023/03/21 07:52:03;;;;;;;14.20;6.78;;;;;;;10.91;81.37;101359.09;5074392;28;20020;-87
2023/03/21 07:54:29;;;;;;;13.68;6.50;;;;;;;10.97;81.35;101359.75;5096661;28;20024;-87
2023/03/21 07:56:59;;;;;;;17.17;7.15;;;;;;;11.04;80.57;101363.06;5092776;28;20040;-87
2023/03/21 07:59:24;;;;;;;12.27;6.82;;;;;;;11.05;81.26;101363.91;5075434;28;20024;-86
2023/03/21 08:01:49;;;;;;;20.30;7.65;;;;;;;11.06;80.67;101363.88;5078787;28;20027;-86
2023/03/21 08:04:15;;;;;;;14.43;7.88;;;;;;;10.99;81.90;101335.88;5094123;28;20024;-86
2023/03/21 08:06:40;;;;;;;15.15;7.93;;;;;;;10.97;82.19;101341.25;5094432;28;20043;-87
2023/03/21 08:09:06;;;;;;;17.02;8.57;;;;;;;11.09;81.43;101342.59;5094625;28;20081;-86
2023/03/21 08:11:31;;;;;;;18.88;7.07;;;;;;;10.89;81.72;101330.03;5071370;28;20032;-86
2023/03/21 08:14:00;;;;;;;14.98;7.70;;;;;;;10.91;82.56;101335.28;5071312;28;20030;-86
2023/03/21 08:16:26;;;;;;;18.85;7.65;;;;;;;11.03;81.53;101321.63;5075605;28;20118;-87
2023/03/21 08:18:51;;;;;;;16.48;7.90;;;;;;;10.99;81.38;101320.00;5093430;28;20435;-86
2023/03/21 08:21:16;;;;;;;17.20;7.75;;;;;;;11.03;81.34;101312.84;5071313;28;20433;-86
2023/03/21 08:23:42;;;;;;;15.60;8.13;;;;;;;11.18;81.71;101302.56;5075126;28;20106;-86
2023/03/21 08:26:08;;;;;;;15.18;7.90;;;;;;;11.12;81.13;101307.22;5095346;28;20020;-85
2023/03/21 08:28:35;;;;;;;14.75;7.43;;;;;;;11.16;80.97;101296.50;5093105;28;20035;-86
2023/03/21 08:31:06;;;;;;;13.63;7.30;;;;;;;11.19;81.41;101291.09;5090451;28;20539;-86
2023/03/21 08:33:31;;;;;;;16.85;7.85;;;;;;;11.14;80.13;101281.56;5094175;28;20383;-86
2023/03/21 08:35:58;;;;;;;15.65;7.78;;;;;;;11.17;80.14;101297.34;5092399;28;20024;-87
2023/03/21 08:38:24;;;;;;;13.48;7.20;;;;;;;11.22;79.80;101288.31;5093611;28;20562;-86
2023/03/21 08:40:50;;;;;;;15.73;7.28;;;;;;;11.19;79.88;101293.75;5075004;28;20111;-86
2023/03/21 08:43:15;;;;;;;14.77;6.85;;;;;;;11.14;79.04;101300.09;5074698;28;20024;-86
2023/03/21 08:45:40;;;;;;;13.18;6.30;;;;;;;11.19;79.82;101301.69;5073537;28;20020;-87
2023/03/21 08:48:06;;;;;;;13.93;7.28;;;;;;;11.12;79.74;101292.22;5076057;28;20024;-86
2023/03/21 08:50:31;;;;;;;11.50;6.55;;;;;;;11.18;80.03;101305.22;5079732;28;20024;-87
2023/03/21 08:52:56;;;;;;;16.95;7.10;;;;;;;11.24;80.05;101299.75;5097761;28;20082;-87
2023/03/21 08:55:23;;;;;;;12.05;5.80;;;;;;;11.31;79.31;101296.84;5079444;28;20499;-86
2023/03/21 08:57:48;;;;;;;11.52;7.05;;;;;;;11.20;79.90;101274.28;5078963;28;20059;-86
2023/03/21 09:00:16;;;;;;;9.98;5.88;;;;;;;11.28;79.84;101281.06;5079612;28;20059;-87
2023/03/21 09:02:47;;;;;;;10.52;5.43;;;;;;;11.37;79.16;101278.97;5078293;28;20434;-85
2023/03/21 09:05:12;;;;;;;11.82;6.18;;;;;;;11.41;79.54;101282.38;5059983;28;20032;-87
2023/03/21 09:07:39;;;;;;;12.70;6.07;;;;;;;11.49;80.31;101277.66;5077760;28;21053;-88
2023/03/21 09:10:06;;;;;;;11.93;6.32;;;;;;;11.59;80.29;101288.78;5080196;28;20487;-88
2023/03/21 09:12:32;;;;;;;11.35;6.38;;;;;;;11.61;79.76;101271.03;5079396;28;20421;-88
2023/03/21 09:14:58;;;;;;;9.55;5.80;;;;;;;11.59;79.61;101279.03;5096017;28;20031;-88
2023/03/21 09:17:23;;;;;;;10.85;6.25;;;;;;;11.64;79.27;101277.09;5077970;28;20574;-88
2023/03/21 09:19:49;;;;;;;13.68;6.60;;;;;;;11.57;79.72;101262.34;5078729;28;20036;-88
2023/03/21 09:22:16;;;;;;;12.00;6.35;;;;;;;11.67;79.62;101282.28;5077251;28;20115;-88
2023/03/21 09:24:46;;;;;;;15.98;6.78;;;;;;;11.66;80.24;101271.75;5078654;28;20020;-88
2023/03/21 09:27:12;;;;;;;13.63;6.32;;;;;;;11.58;79.82;101268.50;5076977;28;20475;-88
2023/03/21 09:29:38;;;;;;;11.60;5.80;;;;;;;11.63;79.06;101270.06;5075457;28;20035;-88
2023/03/21 09:32:05;;;;;;;9.95;5.57;;;;;;;11.64;80.14;101262.97;5064580;28;20107;-88
2023/03/21 09:34:30;;;;;;;12.00;5.70;;;;;;;11.66;79.37;101256.72;5095643;28;20054;-87
2023/03/21 09:36:56;;;;;;;13.27;5.90;;;;;;;11.68;78.69;101264.59;5076964;28;20482;-88
2023/03/21 09:39:22;;;;;;;13.25;6.50;;;;;;;11.62;78.52;101248.94;5073478;28;20438;-87
2023/03/21 09:42:12;;;;;;;13.77;6.55;;;;;;;11.83;79.29;101263.16;5075567;28;20494;-88
2023/03/21 09:44:48;;;;;;;12.93;6.03;;;;;;;11.83;78.07;101265.81;5094035;28;20038;-88
2023/03/21 09:47:33;;;;;;;12.60;6.38;;;;;;;11.85;79.35;101269.28;5073920;28;20422;-88
2023/03/21 09:50:26;;;;;;;10.23;5.53;;;;;;;11.92;77.26;101261.03;5075555;28;20031;-88
2023/03/21 09:53:17;;;;;;;19.73;7.07;;;;;;;11.93;78.43;101261.88;5084201;28;20491;-88
2023/03/21 09:55:43;;;;;;;11.65;6.10;;;;;;;11.87;78.87;101244.44;5094529;28;20051;-88
2023/03/21 09:58:30;;;;;;;11.52;5.20;;;;;;;12.03;77.64;101254.44;5095222;28;20024;-88
2023/03/21 10:01:09;;;;;;;10.63;5.90;;;;;;;12.06;77.14;101246.38;5076146;28;20039;-88
2023/03/21 10:03:36;;;;;;;13.40;6.28;;;;;;;12.07;77.75;101238.34;5073452;28;20062;-88
2023/03/21 10:06:07;;;;;;;12.77;6.55;;;;;;;12.11;77.81;101233.81;5095245;28;20024;-88
2023/03/21 10:08:35;;;;;;;13.80;6.25;;;;;;;12.12;78.10;101235.53;5076146;28;20028;-88
2023/03/21 10:11:42;;;;;;;9.70;5.53;;;;;;;12.28;77.39;101235.78;5075325;28;20063;-88
2023/03/21 10:14:18;;;;;;;12.50;5.30;;;;;;;12.35;77.10;101234.59;5090062;28;20057;-88
2023/03/21 10:16:45;;;;;;;9.10;5.38;;;;;;;12.22;75.00;101213.03;5095938;28;20016;-88
2023/03/21 10:19:16;;;;;;;8.48;5.30;;;;;;;12.31;75.23;101231.22;5096459;28;20115;-89
2023/03/21 10:21:46;;;;;;;12.77;6.18;;;;;;;12.37;77.21;101224.81;5077278;28;20027;-88
2023/03/21 10:24:15;;;;;;;7.78;5.13;;;;;;;12.52;75.42;101219.69;5072986;28;20051;-88
2023/03/21 10:26:42;;;;;;;11.75;5.22;;;;;;;12.51;74.03;101223.28;5066127;28;20075;-89
2023/03/21 10:29:11;;;;;;;8.18;4.50;;;;;;;12.57;73.87;101221.31;5076940;28;20038;-88
2023/03/21 10:31:36;;;;;;;6.88;4.88;;;;;;;12.56;73.79;101209.84;5095347;28;20525;-88
2023/03/21 10:34:12;;;;;;;8.95;4.45;;;;;;;12.74;72.93;101211.69;5072910;28;20028;-88
2023/03/21 10:36:37;;;;;;;8.55;4.57;;;;;;;12.95;72.84;101211.69;5070351;28;20028;-88
2023/03/21 10:39:20;;;;;;;11.18;4.25;;;;;;;13.01;72.84;101214.09;5092110;28;20106;-88
2023/03/21 10:41:45;;;;;;;7.00;4.25;;;;;;;13.05;70.39;101207.69;5095761;28;20035;-88
2023/03/21 10:44:18;;;;;;;8.68;5.13;;;;;;;13.12;70.82;101209.16;5076556;28;20028;-88
2023/03/21 10:46:57;;;;;;;;;;;;;;;13.23;70.09;101224.63;5076719;28;20020;-88
2023/03/21 10:49:22;;;;;;;9.25;4.72;;;;;;;13.17;70.23;101212.47;5077023;28;19908;-88
2023/03/21 10:51:54;;;;;;;11.55;5.28;;;;;;;13.35;72.09;101231.19;5076569;28;20076;-88
2023/03/21 10:54:22;;;;;;;13.05;5.20;;;;;;;13.53;69.61;101220.56;5094566;28;20024;-88
2023/03/21 10:56:57;;;;;;;10.45;4.53;;;;;;;13.60;70.61;101223.78;5076452;28;20080;-88
2023/03/21 10:59:26;;;;;;;12.68;4.88;;;;;;;13.44;69.41;101221.00;5075941;28;20432;-87
2023/03/21 11:01:55;;;;;;;8.90;4.55;;;;;;;13.43;68.93;101226.38;5072614;28;20434;-88
2023/03/21 11:04:25;;;;;;;11.60;5.07;;;;;;;13.56;68.60;101205.41;5074277;28;20016;-87
2023/03/21 11:06:54;;;;;;;10.32;4.18;;;;;;;13.82;68.71;101214.81;5089515;28;20140;-87
2023/03/21 11:09:23;;;;;;;9.45;4.15;;;;;;;13.65;67.19;101219.13;5075051;28;20482;-88
2023/03/21 11:12:02;;;;;;;9.95;4.50;;;;;;;13.91;67.67;101211.72;5090062;28;20028;-88
2023/03/21 11:14:40;;;;;;;10.93;4.25;;;;;;;13.98;66.61;101224.63;5088962;28;20024;-88
2023/03/21 11:17:15;;;;;;;10.27;4.05;;;;;;;13.87;65.82;101213.66;5073074;28;20127;-88
2023/03/21 11:19:40;;;;;;;14.05;4.60;;;;;;;13.71;66.19;101205.56;5083567;28;20039;-88
2023/03/21 11:22:07;;;;;;;8.98;4.45;;;;;;;13.74;65.68;101208.06;5093703;28;20028;-88
2023/03/21 11:24:34;;;;;;;8.73;4.15;;;;;;;13.74;65.95;101197.44;5074816;28;20503;-88
2023/03/21 11:27:05;;;;;;;9.18;4.10;;;;;;;14.02;65.97;101217.38;5072727;28;20431;-88